createdAt,value
2023-01-29T01:30:33.966Z,22.73
2023-01-29T01:33:04.047Z,25.17
2023-01-29T01:35:33.037Z,23.45
2023-01-29T01:41:33.202Z,20.50
2023-01-29T01:44:03.716Z,25.98
2023-01-29T01:47:16.151Z,20.05
2023-01-29T01:49:48.218Z,19.38
2023-01-29T01:52:17.613Z,26.27
2023-01-29T01:54:48.248Z,22.38
2023-01-29T01:57:18.823Z,20.88
2023-01-29T01:59:50.734Z,24.05
2023-01-29T02:03:19.119Z,28.92
2023-01-29T02:06:15.002Z,20.13
2023-01-29T02:09:36.058Z,20.45
2023-01-29T02:12:12.670Z,20.65
2023-01-29T02:15:13.660Z,23.13
2023-01-29T02:17:48.614Z,21.10
2023-01-29T02:20:26.659Z,22.42
2023-01-29T02:23:27.475Z,22.70
2023-01-29T02:26:14.095Z,26.73
2023-01-29T02:28:54.152Z,23.58
2023-01-29T02:31:31.070Z,22.42
2023-01-29T02:34:35.387Z,21.48
2023-01-29T02:37:08.438Z,19.85
2023-01-29T02:39:52.179Z,23.77
2023-01-29T02:43:01.570Z,22.35
2023-01-29T02:45:39.751Z,21.13
2023-01-29T02:48:21.832Z,22.75
2023-01-29T02:51:01.076Z,22.27
2023-01-29T02:54:27.137Z,21.50
2023-01-29T02:57:35.680Z,24.57
2023-01-29T03:00:15.320Z,24.90
2023-01-29T03:02:59.775Z,21.75
2023-01-29T03:05:43.775Z,21.65
2023-01-29T03:08:16.317Z,23.13
2023-01-29T03:11:06.982Z,19.75
2023-01-29T03:13:50.414Z,25.80
2023-01-29T03:16:38.144Z,20.48
2023-01-29T03:19:16.388Z,20.52
2023-01-29T03:21:59.780Z,21.52
2023-01-29T03:25:20.814Z,20.05
2023-01-29T03:28:19.351Z,19.48
2023-01-29T03:34:16.587Z,21.95
2023-01-29T03:36:56.085Z,23.20
2023-01-29T03:39:28.656Z,25.60
2023-01-29T03:42:08.410Z,18.95
2023-01-29T03:45:28.197Z,17.80
2023-01-29T03:48:14.884Z,16.92
2023-01-29T03:51:05.433Z,18.92
2023-01-29T03:53:40.298Z,24.42
2023-01-29T03:56:35.726Z,24.37
2023-01-29T03:59:16.644Z,23.33
2023-01-29T04:02:18.895Z,23.50
2023-01-29T04:04:56.965Z,22.88
2023-01-29T04:07:31.244Z,19.65
2023-01-29T04:10:24.143Z,22.30
2023-01-29T04:13:44.368Z,23.27
2023-01-29T04:16:38.462Z,20.00
2023-01-29T04:19:39.719Z,19.35
2023-01-29T04:22:57.940Z,18.15
2023-01-29T04:26:01.173Z,19.95
2023-01-29T04:29:09.468Z,19.63
2023-01-29T04:31:57.618Z,19.85
2023-01-29T04:34:29.595Z,24.27
2023-01-29T04:37:17.878Z,17.70
2023-01-29T04:39:59.160Z,16.25
2023-01-29T04:42:57.613Z,19.48
2023-01-29T04:45:48.079Z,18.52
2023-01-29T04:48:52.018Z,18.13
2023-01-29T04:51:31.792Z,15.85
2023-01-29T04:54:19.883Z,17.70
2023-01-29T04:57:26.146Z,16.30
2023-01-29T05:01:07.752Z,20.03
2023-01-29T05:04:15.129Z,19.48
2023-01-29T05:06:46.739Z,18.65
2023-01-29T05:09:17.945Z,24.10
2023-01-29T05:11:48.580Z,23.17
2023-01-29T05:14:18.149Z,20.27
2023-01-29T05:16:50.020Z,21.73
2023-01-29T05:19:20.408Z,20.85
2023-01-29T05:21:49.647Z,22.42
2023-01-29T05:24:23.156Z,21.35
2023-01-29T05:27:12.843Z,23.10
2023-01-29T05:29:51.306Z,18.40
2023-01-29T05:32:22.278Z,21.33
2023-01-29T05:34:54.289Z,22.58
2023-01-29T05:37:23.869Z,25.20
2023-01-29T05:39:53.098Z,22.85
2023-01-29T05:42:22.698Z,25.80
2023-01-29T05:44:52.235Z,22.38
2023-01-29T05:47:27.192Z,24.45
2023-01-29T05:49:56.209Z,22.55
2023-01-29T05:52:27.542Z,18.70
2023-01-29T05:54:55.812Z,27.08
2023-01-29T05:57:24.172Z,21.42
2023-01-29T05:59:52.227Z,20.85
2023-01-29T06:02:21.495Z,18.67
2023-01-29T06:04:52.579Z,21.13
2023-01-29T06:07:20.980Z,17.98
2023-01-29T06:09:49.444Z,18.50
2023-01-29T06:12:28.565Z,19.33
2023-01-29T06:14:59.166Z,18.90
2023-01-29T06:17:32.363Z,24.02
2023-01-29T06:20:00.570Z,21.30
2023-01-29T06:22:29.297Z,22.33
2023-01-29T06:24:57.389Z,20.48
2023-01-29T06:27:25.566Z,22.15
2023-01-29T06:29:53.610Z,23.83
2023-01-29T06:32:21.577Z,18.85
2023-01-29T06:35:28.416Z,20.88
2023-01-29T06:38:05.538Z,22.38
2023-01-29T06:40:44.299Z,20.85
2023-01-29T06:43:19.676Z,19.98
2023-01-29T06:45:58.027Z,21.80
2023-01-29T06:48:29.807Z,23.73
2023-01-29T06:51:08.899Z,20.27
2023-01-29T06:53:48.238Z,20.08
2023-01-29T06:56:17.393Z,22.38
2023-01-29T06:58:46.256Z,32.72
2023-01-29T07:01:35.065Z,27.73
2023-01-29T07:11:05.203Z,25.65
2023-01-29T10:43:00.939Z,36.60
2023-01-29T10:45:57.372Z,31.63
2023-01-29T10:48:37.826Z,32.90
2023-01-29T10:51:21.697Z,36.95
2023-01-29T10:54:10.168Z,34.08
2023-01-29T10:56:57.933Z,30.08
2023-01-29T11:00:24.140Z,36.25
2023-01-29T11:02:56.411Z,30.95
2023-01-29T11:05:35.831Z,35.88
2023-01-29T11:08:14.368Z,31.60
2023-01-29T11:11:11.904Z,31.25
2023-01-29T11:13:57.316Z,32.40
2023-01-29T11:16:29.834Z,25.52
2023-01-29T11:19:00.077Z,37.80
2023-01-29T11:21:29.566Z,26.27
2023-01-29T11:24:32.426Z,31.23
2023-01-29T11:27:00.501Z,33.25
2023-01-29T11:29:37.970Z,35.35
2023-01-29T11:32:19.919Z,32.33
2023-01-29T11:35:01.426Z,26.92
2023-01-29T11:37:36.872Z,30.00
2023-01-29T11:40:36.989Z,28.40
2023-01-29T11:43:31.113Z,34.33
2023-01-29T11:46:13.224Z,22.33
2023-01-29T11:48:45.184Z,35.88
2023-01-29T11:51:23.724Z,33.05
2023-01-29T11:53:59.916Z,35.47
2023-01-29T11:56:41.579Z,35.10
2023-01-29T11:59:30.503Z,35.22
2023-01-29T12:02:15.267Z,31.58
2023-01-29T12:04:43.180Z,32.17
2023-01-29T12:07:15.194Z,32.60
2023-01-29T12:09:55.449Z,32.10
2023-01-29T12:12:40.332Z,38.08
2023-01-29T12:15:09.060Z,35.22
2023-01-29T12:17:37.863Z,36.38
2023-01-29T12:20:12.032Z,33.13
2023-01-29T12:22:45.754Z,39.42
2023-01-29T12:25:40.006Z,31.55
2023-01-29T12:28:26.421Z,31.88
2023-01-29T12:31:00.268Z,30.92
2023-01-29T12:33:39.081Z,36.80
2023-01-29T12:36:31.763Z,36.00
2023-01-29T12:38:59.822Z,44.00
2023-01-29T12:41:33.563Z,27.08
2023-01-29T12:44:34.746Z,39.15
2023-01-29T12:47:03.544Z,34.70
2023-01-29T12:49:33.983Z,32.42
2023-01-29T12:52:31.241Z,29.30
2023-01-29T12:55:33.303Z,28.42
2023-01-29T12:58:06.346Z,32.15
2023-01-29T13:00:44.821Z,25.98
2023-01-29T13:03:27.554Z,30.92
2023-01-29T13:06:23.861Z,29.77
2023-01-29T13:08:54.050Z,31.90
2023-01-29T13:11:25.391Z,30.75
2023-01-29T13:13:59.738Z,33.05
2023-01-29T13:16:30.935Z,29.60
2023-01-29T13:19:14.245Z,30.00
2023-01-29T13:21:45.058Z,31.63
2023-01-29T13:24:24.572Z,29.75
2023-01-29T13:26:52.558Z,26.35
2023-01-29T13:29:29.136Z,29.67
2023-01-29T13:31:58.250Z,34.03
2023-01-29T13:34:33.193Z,29.65
2023-01-29T13:37:11.436Z,33.95
2023-01-29T13:39:47.458Z,32.58
2023-01-29T13:42:19.923Z,31.33
2023-01-29T13:44:52.903Z,33.30
2023-01-29T13:47:39.875Z,31.42
2023-01-29T13:50:32.480Z,30.30
2023-01-29T13:53:06.927Z,33.25
2023-01-29T13:55:45.458Z,37.00
2023-01-29T13:58:17.785Z,29.73
2023-01-29T14:00:48.748Z,35.15
2023-01-29T14:03:17.082Z,35.50
2023-01-29T14:05:55.443Z,32.22
2023-01-29T14:08:35.120Z,33.65
2023-01-29T14:11:18.007Z,34.65
2023-01-29T14:13:50.093Z,33.70
2023-01-29T14:16:36.920Z,34.95
2023-01-29T14:19:33.315Z,30.88
2023-01-29T14:22:05.307Z,29.92
2023-01-29T14:24:33.921Z,32.10
2023-01-29T14:27:03.515Z,31.95
2023-01-29T14:29:38.249Z,32.30
2023-01-29T14:32:18.122Z,37.50
2023-01-29T14:34:58.302Z,35.38
2023-01-29T14:37:36.985Z,37.58
2023-01-29T14:40:21.291Z,34.90
2023-01-29T14:43:08.335Z,36.58
2023-01-29T14:45:37.272Z,37.83
2023-01-29T14:48:11.573Z,33.03
2023-01-29T14:50:50.675Z,41.30
2023-01-29T14:53:52.158Z,34.85
2023-01-29T14:56:42.090Z,45.60
2023-01-29T14:59:19.456Z,34.13
2023-01-29T15:01:51.669Z,33.10
2023-01-29T15:04:29.062Z,33.92
2023-01-29T15:07:24.142Z,36.95
2023-01-29T15:10:43.175Z,40.38
2023-01-29T15:13:33.045Z,40.20
2023-01-29T15:16:53.941Z,39.60
2023-01-29T15:19:26.347Z,41.22
2023-01-29T15:22:10.033Z,35.70
2023-01-29T15:24:39.130Z,36.38
2023-01-29T15:27:10.280Z,42.10
2023-01-29T15:29:39.405Z,34.03
2023-01-29T15:32:08.069Z,34.30
2023-01-29T15:34:35.862Z,40.47
2023-01-29T15:37:12.628Z,35.58
2023-01-29T15:42:30.264Z,38.60
2023-01-29T15:45:05.795Z,38.90
2023-01-29T15:47:50.482Z,34.13
2023-01-29T15:50:19.345Z,37.28
2023-01-29T15:53:05.275Z,38.30
2023-01-29T15:55:38.453Z,34.35
2023-01-29T15:58:18.070Z,39.30
2023-01-29T16:00:52.611Z,53.90
2023-01-29T16:03:25.670Z,41.15
2023-01-29T16:05:53.937Z,36.15
2023-01-29T19:50:17.138Z,18.85
2023-01-29T19:52:52.537Z,15.13
2023-01-29T19:55:23.548Z,14.00
2023-01-29T19:57:57.192Z,16.35
2023-01-29T20:00:25.318Z,13.43
2023-01-29T20:02:55.818Z,15.50
2023-01-29T20:05:24.225Z,15.60
2023-01-29T20:07:52.999Z,16.45
2023-01-29T20:10:21.427Z,16.67
2023-01-29T20:12:49.516Z,16.35
2023-01-29T20:15:17.828Z,15.98
2023-01-29T20:17:46.106Z,16.23
2023-01-29T20:20:18.417Z,17.10
2023-01-29T20:22:49.786Z,13.80
2023-01-29T20:25:19.700Z,14.73
2023-01-29T20:27:50.793Z,16.25
2023-01-29T20:30:19.080Z,21.02
2023-01-29T20:32:47.174Z,17.42
2023-01-29T20:35:15.798Z,18.65
2023-01-29T20:37:45.729Z,14.50
2023-01-29T20:40:17.432Z,16.83
2023-01-29T20:42:45.902Z,14.52
2023-01-29T20:45:15.595Z,15.60
2023-01-29T20:47:45.853Z,14.60
2023-01-29T20:50:15.218Z,14.77
2023-01-29T20:52:44.174Z,13.32
2023-01-29T20:55:15.018Z,19.33
2023-01-29T20:57:43.893Z,18.23
2023-01-29T21:00:32.616Z,15.93
2023-01-29T21:03:01.750Z,12.20
2023-01-29T21:05:32.326Z,16.17
2023-01-29T21:08:01.643Z,13.25
2023-01-29T21:10:29.815Z,15.32
2023-01-29T21:12:58.448Z,16.85
2023-01-29T21:15:27.584Z,13.15
2023-01-29T21:17:55.902Z,13.82
2023-01-29T21:20:28.784Z,15.63
2023-01-29T21:22:56.742Z,16.63
2023-01-29T21:25:24.846Z,18.90
2023-01-29T21:27:52.820Z,14.57
2023-01-29T21:30:21.022Z,17.38
2023-01-29T21:33:12.818Z,14.10
2023-01-29T21:35:41.873Z,17.08
2023-01-29T21:38:09.756Z,18.27
2023-01-29T21:40:38.041Z,15.23
2023-01-29T21:43:12.967Z,16.52
2023-01-29T21:45:41.542Z,19.20
2023-01-29T21:48:10.310Z,18.30
2023-01-29T21:50:39.845Z,18.83
2023-01-29T21:53:08.930Z,16.10
2023-01-29T21:55:37.476Z,17.33
2023-01-29T21:58:05.451Z,16.15
2023-01-29T22:03:19.916Z,15.82
2023-01-29T22:05:50.275Z,14.60
